sensor_id;sensor_type;location;lat;lon;timestamp;temperature;humidity
43225;DHT22;28834;48.720;9.208;2022-10-31T00:01:46;12.40;99.90
43225;DHT22;28834;48.720;9.208;2022-10-31T00:04:11;12.40;99.90
43225;DHT22;28834;48.720;9.208;2022-10-31T00:06:37;12.30;99.90
43225;DHT22;28834;48.720;9.208;2022-10-31T00:09:04;12.30;99.90
43225;DHT22;28834;48.720;9.208;2022-10-31T00:11:29;12.30;99.90
43225;DHT22;28834;48.720;9.208;2022-10-31T00:13:57;12.30;99.90
43225;DHT22;28834;48.720;9.208;2022-10-31T00:16:24;12.20;99.90
43225;DHT22;28834;48.720;9.208;2022-10-31T00:19:00;12.20;99.90
43225;DHT22;28834;48.720;9.208;2022-10-31T00:21:28;12.20;99.90
43225;DHT22;28834;48.720;9.208;2022-10-31T00:23:54;12.20;99.90
43225;DHT22;28834;48.720;9.208;2022-10-31T00:26:20;12.20;99.90
43225;DHT22;28834;48.720;9.208;2022-10-31T00:28:46;12.10;99.90
43225;DHT22;28834;48.720;9.208;2022-10-31T00:31:12;12.10;99.90
43225;DHT22;28834;48.720;9.208;2022-10-31T00:33:39;12.10;99.90
43225;DHT22;28834;48.720;9.208;2022-10-31T00:36:06;12.00;99.90
43225;DHT22;28834;48.720;9.208;2022-10-31T00:38:33;12.00;99.90
43225;DHT22;28834;48.720;9.208;2022-10-31T00:40:58;12.00;99.90
43225;DHT22;28834;48.720;9.208;2022-10-31T00:43:24;12.00;99.90
43225;DHT22;28834;48.720;9.208;2022-10-31T00:45:50;11.90;99.90
43225;DHT22;28834;48.720;9.208;2022-10-31T00:48:15;11.90;99.90
43225;DHT22;28834;48.720;9.208;2022-10-31T00:50:41;11.90;99.90
43225;DHT22;28834;48.720;9.208;2022-10-31T00:53:07;11.90;99.90
43225;DHT22;28834;48.720;9.208;2022-10-31T00:55:33;11.90;99.90
43225;DHT22;28834;48.720;9.208;2022-10-31T00:57:59;11.90;99.90
43225;DHT22;28834;48.720;9.208;2022-10-31T01:00:24;11.80;99.90
43225;DHT22;28834;48.720;9.208;2022-10-31T01:02:50;11.80;99.90
43225;DHT22;28834;48.720;9.208;2022-10-31T01:05:16;11.70;99.90
43225;DHT22;28834;48.720;9.208;2022-10-31T01:07:42;11.70;99.90
43225;DHT22;28834;48.720;9.208;2022-10-31T01:10:08;11.70;99.90
43225;DHT22;28834;48.720;9.208;2022-10-31T01:12:41;11.70;99.90
43225;DHT22;28834;48.720;9.208;2022-10-31T01:15:08;11.60;99.90
43225;DHT22;28834;48.720;9.208;2022-10-31T01:17:34;11.60;99.90
43225;DHT22;28834;48.720;9.208;2022-10-31T01:20:00;11.60;99.90
43225;DHT22;28834;48.720;9.208;2022-10-31T01:22:26;11.60;99.90
43225;DHT22;28834;48.720;9.208;2022-10-31T01:24:51;11.60;99.90
43225;DHT22;28834;48.720;9.208;2022-10-31T01:27:17;11.50;99.90
43225;DHT22;28834;48.720;9.208;2022-10-31T01:29:42;11.50;99.90
43225;DHT22;28834;48.720;9.208;2022-10-31T01:32:08;11.50;99.90
43225;DHT22;28834;48.720;9.208;2022-10-31T01:34:33;11.50;99.90
43225;DHT22;28834;48.720;9.208;2022-10-31T01:36:59;11.50;99.90
43225;DHT22;28834;48.720;9.208;2022-10-31T01:39:24;11.40;99.90
43225;DHT22;28834;48.720;9.208;2022-10-31T01:41:52;11.50;99.90
43225;DHT22;28834;48.720;9.208;2022-10-31T01:54:42;11.30;99.90
43225;DHT22;28834;48.720;9.208;2022-10-31T01:57:10;11.30;99.90
43225;DHT22;28834;48.720;9.208;2022-10-31T01:59:42;11.30;99.90
43225;DHT22;28834;48.720;9.208;2022-10-31T02:02:08;11.30;99.90
43225;DHT22;28834;48.720;9.208;2022-10-31T02:04:35;11.30;99.90
43225;DHT22;28834;48.720;9.208;2022-10-31T02:07:12;11.30;99.90
43225;DHT22;28834;48.720;9.208;2022-10-31T02:09:40;11.30;99.90
43225;DHT22;28834;48.720;9.208;2022-10-31T02:12:06;11.30;99.90
43225;DHT22;28834;48.720;9.208;2022-10-31T02:14:35;11.20;99.90
43225;DHT22;28834;48.720;9.208;2022-10-31T02:17:01;11.20;99.90
43225;DHT22;28834;48.720;9.208;2022-10-31T02:19:41;11.20;99.90
43225;DHT22;28834;48.720;9.208;2022-10-31T02:28:00;11.20;99.90
43225;DHT22;28834;48.720;9.208;2022-10-31T02:30:52;11.10;99.90
43225;DHT22;28834;48.720;9.208;2022-10-31T02:33:23;11.10;99.90
43225;DHT22;28834;48.720;9.208;2022-10-31T02:36:09;11.10;99.90
43225;DHT22;28834;48.720;9.208;2022-10-31T02:46:48;11.00;99.90
43225;DHT22;28834;48.720;9.208;2022-10-31T02:51:51;10.90;99.90
43225;DHT22;28834;48.720;9.208;2022-10-31T02:54:19;10.90;99.90
43225;DHT22;28834;48.720;9.208;2022-10-31T02:56:47;10.90;99.90
43225;DHT22;28834;48.720;9.208;2022-10-31T02:59:13;10.90;99.90
43225;DHT22;28834;48.720;9.208;2022-10-31T03:01:52;10.90;99.90
43225;DHT22;28834;48.720;9.208;2022-10-31T03:12:11;10.70;99.90
43225;DHT22;28834;48.720;9.208;2022-10-31T03:14:48;10.60;99.90
43225;DHT22;28834;48.720;9.208;2022-10-31T03:17:52;10.60;99.90
43225;DHT22;28834;48.720;9.208;2022-10-31T03:20:17;10.60;99.90
43225;DHT22;28834;48.720;9.208;2022-10-31T03:22:46;10.60;99.90
43225;DHT22;28834;48.720;9.208;2022-10-31T03:25:13;10.60;99.90
43225;DHT22;28834;48.720;9.208;2022-10-31T03:27:41;10.50;99.90
43225;DHT22;28834;48.720;9.208;2022-10-31T03:30:07;10.50;99.90
43225;DHT22;28834;48.720;9.208;2022-10-31T03:33:00;10.50;99.90
43225;DHT22;28834;48.720;9.208;2022-10-31T03:35:26;10.50;99.90
43225;DHT22;28834;48.720;9.208;2022-10-31T03:37:54;10.50;99.90
43225;DHT22;28834;48.720;9.208;2022-10-31T03:40:21;10.50;99.90
43225;DHT22;28834;48.720;9.208;2022-10-31T03:42:58;10.40;99.90
43225;DHT22;28834;48.720;9.208;2022-10-31T03:45:27;10.40;99.90
43225;DHT22;28834;48.720;9.208;2022-10-31T03:47:54;10.40;99.90
43225;DHT22;28834;48.720;9.208;2022-10-31T03:50:21;10.40;99.90
43225;DHT22;28834;48.720;9.208;2022-10-31T03:53:09;10.40;99.90
43225;DHT22;28834;48.720;9.208;2022-10-31T03:56:32;10.40;99.90
43225;DHT22;28834;48.720;9.208;2022-10-31T03:58:48;10.40;99.90
43225;DHT22;28834;48.720;9.208;2022-10-31T04:01:18;10.40;99.90
43225;DHT22;28834;48.720;9.208;2022-10-31T04:03:45;10.30;99.90
43225;DHT22;28834;48.720;9.208;2022-10-31T04:06:13;10.30;99.90
43225;DHT22;28834;48.720;9.208;2022-10-31T04:08:45;10.30;99.90
43225;DHT22;28834;48.720;9.208;2022-10-31T04:11:13;10.30;99.90
43225;DHT22;28834;48.720;9.208;2022-10-31T04:13:42;10.30;99.90
43225;DHT22;28834;48.720;9.208;2022-10-31T04:16:09;10.40;99.90
43225;DHT22;28834;48.720;9.208;2022-10-31T04:18:35;10.30;99.90
43225;DHT22;28834;48.720;9.208;2022-10-31T04:21:04;10.30;99.90
43225;DHT22;28834;48.720;9.208;2022-10-31T04:23:30;10.30;99.90
43225;DHT22;28834;48.720;9.208;2022-10-31T04:25:56;10.30;99.90
43225;DHT22;28834;48.720;9.208;2022-10-31T04:28:22;10.30;99.90
43225;DHT22;28834;48.720;9.208;2022-10-31T04:30:48;10.30;99.90
43225;DHT22;28834;48.720;9.208;2022-10-31T04:33:13;10.30;99.90
43225;DHT22;28834;48.720;9.208;2022-10-31T04:35:39;10.30;99.90
43225;DHT22;28834;48.720;9.208;2022-10-31T04:38:05;10.20;99.90
43225;DHT22;28834;48.720;9.208;2022-10-31T04:40:31;10.30;99.90
43225;DHT22;28834;48.720;9.208;2022-10-31T04:42:56;10.20;99.90
43225;DHT22;28834;48.720;9.208;2022-10-31T04:45:22;10.20;99.90
43225;DHT22;28834;48.720;9.208;2022-10-31T04:47:47;10.20;99.90
43225;DHT22;28834;48.720;9.208;2022-10-31T04:50:13;10.30;99.90
43225;DHT22;28834;48.720;9.208;2022-10-31T04:52:40;10.30;99.90
43225;DHT22;28834;48.720;9.208;2022-10-31T04:55:06;10.30;99.90
43225;DHT22;28834;48.720;9.208;2022-10-31T04:57:31;10.20;99.90
43225;DHT22;28834;48.720;9.208;2022-10-31T04:59:57;10.30;99.90
43225;DHT22;28834;48.720;9.208;2022-10-31T05:02:22;10.30;99.90
43225;DHT22;28834;48.720;9.208;2022-10-31T05:04:48;10.30;99.90
43225;DHT22;28834;48.720;9.208;2022-10-31T05:07:14;10.30;99.90
43225;DHT22;28834;48.720;9.208;2022-10-31T05:09:39;10.20;99.90
43225;DHT22;28834;48.720;9.208;2022-10-31T05:12:05;10.20;99.90
43225;DHT22;28834;48.720;9.208;2022-10-31T05:14:30;10.20;99.90
43225;DHT22;28834;48.720;9.208;2022-10-31T05:16:56;10.10;99.90
43225;DHT22;28834;48.720;9.208;2022-10-31T05:19:22;10.20;99.90
43225;DHT22;28834;48.720;9.208;2022-10-31T05:21:47;10.10;99.90
43225;DHT22;28834;48.720;9.208;2022-10-31T05:24:13;10.00;99.90
43225;DHT22;28834;48.720;9.208;2022-10-31T05:26:38;9.90;99.90
43225;DHT22;28834;48.720;9.208;2022-10-31T05:29:04;9.80;99.90
43225;DHT22;28834;48.720;9.208;2022-10-31T05:31:29;9.70;99.90
43225;DHT22;28834;48.720;9.208;2022-10-31T05:33:55;9.70;99.90
43225;DHT22;28834;48.720;9.208;2022-10-31T05:36:20;9.70;99.90
43225;DHT22;28834;48.720;9.208;2022-10-31T05:38:46;9.60;99.90
43225;DHT22;28834;48.720;9.208;2022-10-31T05:41:11;9.50;99.90
43225;DHT22;28834;48.720;9.208;2022-10-31T05:43:37;9.50;99.90
43225;DHT22;28834;48.720;9.208;2022-10-31T05:46:03;9.40;99.90
43225;DHT22;28834;48.720;9.208;2022-10-31T05:48:28;9.40;99.90
43225;DHT22;28834;48.720;9.208;2022-10-31T05:50:54;9.40;99.90
43225;DHT22;28834;48.720;9.208;2022-10-31T05:53:19;9.40;99.90
43225;DHT22;28834;48.720;9.208;2022-10-31T05:55:46;9.30;99.90
43225;DHT22;28834;48.720;9.208;2022-10-31T05:58:12;9.30;99.90
43225;DHT22;28834;48.720;9.208;2022-10-31T06:00:37;9.30;99.90
43225;DHT22;28834;48.720;9.208;2022-10-31T06:03:06;9.20;99.90
43225;DHT22;28834;48.720;9.208;2022-10-31T06:05:32;9.30;99.90
43225;DHT22;28834;48.720;9.208;2022-10-31T06:07:57;9.20;99.90
43225;DHT22;28834;48.720;9.208;2022-10-31T06:10:23;9.20;99.90
43225;DHT22;28834;48.720;9.208;2022-10-31T06:12:49;9.20;99.90
43225;DHT22;28834;48.720;9.208;2022-10-31T06:15:16;9.30;99.90
43225;DHT22;28834;48.720;9.208;2022-10-31T06:17:41;9.30;99.90
43225;DHT22;28834;48.720;9.208;2022-10-31T06:20:07;9.30;99.90
43225;DHT22;28834;48.720;9.208;2022-10-31T06:22:33;9.30;99.90
43225;DHT22;28834;48.720;9.208;2022-10-31T06:24:59;9.40;99.90
43225;DHT22;28834;48.720;9.208;2022-10-31T06:27:25;9.40;99.90
43225;DHT22;28834;48.720;9.208;2022-10-31T06:29:51;9.40;99.90
43225;DHT22;28834;48.720;9.208;2022-10-31T06:32:17;9.50;99.90
43225;DHT22;28834;48.720;9.208;2022-10-31T06:34:43;9.60;99.90
43225;DHT22;28834;48.720;9.208;2022-10-31T06:37:10;9.70;99.90
43225;DHT22;28834;48.720;9.208;2022-10-31T06:39:36;9.70;99.90
43225;DHT22;28834;48.720;9.208;2022-10-31T06:42:03;9.80;99.90
43225;DHT22;28834;48.720;9.208;2022-10-31T06:44:29;9.90;99.90
43225;DHT22;28834;48.720;9.208;2022-10-31T06:46:55;10.00;99.90
43225;DHT22;28834;48.720;9.208;2022-10-31T06:49:20;10.00;99.90
43225;DHT22;28834;48.720;9.208;2022-10-31T06:51:49;10.10;99.90
43225;DHT22;28834;48.720;9.208;2022-10-31T06:54:16;10.50;99.90
43225;DHT22;28834;48.720;9.208;2022-10-31T06:56:41;10.90;99.90
43225;DHT22;28834;48.720;9.208;2022-10-31T06:59:07;11.30;99.90
43225;DHT22;28834;48.720;9.208;2022-10-31T07:01:33;11.40;99.90
43225;DHT22;28834;48.720;9.208;2022-10-31T07:03:58;11.40;99.90
43225;DHT22;28834;48.720;9.208;2022-10-31T07:06:24;11.50;99.90
43225;DHT22;28834;48.720;9.208;2022-10-31T07:08:51;11.60;99.90
43225;DHT22;28834;48.720;9.208;2022-10-31T07:11:16;11.70;99.90
43225;DHT22;28834;48.720;9.208;2022-10-31T07:13:42;11.70;99.90
43225;DHT22;28834;48.720;9.208;2022-10-31T07:16:08;11.90;99.90
43225;DHT22;28834;48.720;9.208;2022-10-31T07:18:35;12.00;99.90
43225;DHT22;28834;48.720;9.208;2022-10-31T07:21:01;12.10;99.90
43225;DHT22;28834;48.720;9.208;2022-10-31T07:23:27;12.40;99.90
43225;DHT22;28834;48.720;9.208;2022-10-31T07:25:58;12.60;99.90
43225;DHT22;28834;48.720;9.208;2022-10-31T07:28:25;12.80;99.90
43225;DHT22;28834;48.720;9.208;2022-10-31T07:30:52;12.80;99.90
43225;DHT22;28834;48.720;9.208;2022-10-31T07:33:18;12.80;99.90
43225;DHT22;28834;48.720;9.208;2022-10-31T07:35:43;12.60;99.90
43225;DHT22;28834;48.720;9.208;2022-10-31T07:38:10;12.40;99.90
43225;DHT22;28834;48.720;9.208;2022-10-31T07:40:37;12.10;99.90
43225;DHT22;28834;48.720;9.208;2022-10-31T07:43:02;12.00;99.90
43225;DHT22;28834;48.720;9.208;2022-10-31T07:45:28;11.90;99.90
43225;DHT22;28834;48.720;9.208;2022-10-31T07:47:54;11.80;99.90
43225;DHT22;28834;48.720;9.208;2022-10-31T07:50:22;11.90;99.90
43225;DHT22;28834;48.720;9.208;2022-10-31T07:52:48;12.10;99.90
43225;DHT22;28834;48.720;9.208;2022-10-31T07:55:22;12.30;99.90
43225;DHT22;28834;48.720;9.208;2022-10-31T07:57:58;12.50;99.90
43225;DHT22;28834;48.720;9.208;2022-10-31T08:00:25;12.60;99.90
43225;DHT22;28834;48.720;9.208;2022-10-31T08:03:08;12.70;99.90
43225;DHT22;28834;48.720;9.208;2022-10-31T08:05:35;12.60;99.90
43225;DHT22;28834;48.720;9.208;2022-10-31T08:08:00;12.60;99.90
43225;DHT22;28834;48.720;9.208;2022-10-31T08:10:27;12.50;99.90
43225;DHT22;28834;48.720;9.208;2022-10-31T08:13:01;12.40;99.90
43225;DHT22;28834;48.720;9.208;2022-10-31T08:15:27;12.20;99.90
43225;DHT22;28834;48.720;9.208;2022-10-31T08:17:53;12.10;99.90
43225;DHT22;28834;48.720;9.208;2022-10-31T08:20:19;12.10;99.90
43225;DHT22;28834;48.720;9.208;2022-10-31T08:22:59;12.10;99.90
43225;DHT22;28834;48.720;9.208;2022-10-31T08:25:27;12.00;99.90
43225;DHT22;28834;48.720;9.208;2022-10-31T08:27:54;12.00;99.90
43225;DHT22;28834;48.720;9.208;2022-10-31T08:30:21;12.00;99.90
43225;DHT22;28834;48.720;9.208;2022-10-31T08:32:56;12.00;99.90
43225;DHT22;28834;48.720;9.208;2022-10-31T08:35:21;12.20;99.90
43225;DHT22;28834;48.720;9.208;2022-10-31T08:37:55;12.30;99.90
43225;DHT22;28834;48.720;9.208;2022-10-31T08:40:21;12.40;99.90
43225;DHT22;28834;48.720;9.208;2022-10-31T08:42:47;12.50;99.90
43225;DHT22;28834;48.720;9.208;2022-10-31T08:45:13;12.50;99.90
43225;DHT22;28834;48.720;9.208;2022-10-31T08:47:39;12.60;99.90
43225;DHT22;28834;48.720;9.208;2022-10-31T08:50:05;12.60;99.90
43225;DHT22;28834;48.720;9.208;2022-10-31T08:52:30;12.60;99.90
43225;DHT22;28834;48.720;9.208;2022-10-31T08:54:56;12.60;99.90
43225;DHT22;28834;48.720;9.208;2022-10-31T08:57:21;12.70;99.90
43225;DHT22;28834;48.720;9.208;2022-10-31T08:59:47;12.70;99.90
43225;DHT22;28834;48.720;9.208;2022-10-31T09:02:12;12.80;99.90
43225;DHT22;28834;48.720;9.208;2022-10-31T09:04:38;12.90;99.90
43225;DHT22;28834;48.720;9.208;2022-10-31T09:07:04;12.90;99.90
43225;DHT22;28834;48.720;9.208;2022-10-31T09:09:29;13.00;99.90
43225;DHT22;28834;48.720;9.208;2022-10-31T09:11:55;13.00;99.90
43225;DHT22;28834;48.720;9.208;2022-10-31T09:14:20;13.00;99.90
43225;DHT22;28834;48.720;9.208;2022-10-31T09:16:46;13.10;99.90
43225;DHT22;28834;48.720;9.208;2022-10-31T09:19:11;13.10;99.90
43225;DHT22;28834;48.720;9.208;2022-10-31T09:21:37;13.20;99.90
43225;DHT22;28834;48.720;9.208;2022-10-31T09:24:03;13.10;99.90
43225;DHT22;28834;48.720;9.208;2022-10-31T09:26:28;13.20;99.90
43225;DHT22;28834;48.720;9.208;2022-10-31T09:28:54;13.30;99.90
43225;DHT22;28834;48.720;9.208;2022-10-31T09:31:19;13.30;99.90
43225;DHT22;28834;48.720;9.208;2022-10-31T09:33:45;13.30;99.90
43225;DHT22;28834;48.720;9.208;2022-10-31T09:36:11;13.20;99.90
43225;DHT22;28834;48.720;9.208;2022-10-31T09:38:36;13.20;99.90
43225;DHT22;28834;48.720;9.208;2022-10-31T09:46:57;13.30;99.90
43225;DHT22;28834;48.720;9.208;2022-10-31T09:49:37;13.40;99.90
43225;DHT22;28834;48.720;9.208;2022-10-31T09:54:49;13.60;99.90
43225;DHT22;28834;48.720;9.208;2022-10-31T09:57:27;13.60;99.90
43225;DHT22;28834;48.720;9.208;2022-10-31T09:59:53;13.80;99.90
43225;DHT22;28834;48.720;9.208;2022-10-31T10:02:37;13.90;99.90
43225;DHT22;28834;48.720;9.208;2022-10-31T10:05:10;14.00;99.90
43225;DHT22;28834;48.720;9.208;2022-10-31T10:08:09;14.20;99.90
43225;DHT22;28834;48.720;9.208;2022-10-31T10:13:30;14.30;99.90
43225;DHT22;28834;48.720;9.208;2022-10-31T10:24:09;14.30;99.90
43225;DHT22;28834;48.720;9.208;2022-10-31T10:26:39;14.30;99.90
43225;DHT22;28834;48.720;9.208;2022-10-31T10:29:27;14.40;99.90
43225;DHT22;28834;48.720;9.208;2022-10-31T10:31:58;14.50;99.90
43225;DHT22;28834;48.720;9.208;2022-10-31T10:34:54;14.60;99.90
43225;DHT22;28834;48.720;9.208;2022-10-31T10:37:22;14.60;99.90
43225;DHT22;28834;48.720;9.208;2022-10-31T10:39:54;14.70;99.90
43225;DHT22;28834;48.720;9.208;2022-10-31T10:42:21;14.60;99.90
43225;DHT22;28834;48.720;9.208;2022-10-31T10:45:17;14.70;99.90
43225;DHT22;28834;48.720;9.208;2022-10-31T10:48:34;14.70;99.90
43225;DHT22;28834;48.720;9.208;2022-10-31T10:51:03;14.60;99.90
43225;DHT22;28834;48.720;9.208;2022-10-31T10:53:38;14.60;99.90
43225;DHT22;28834;48.720;9.208;2022-10-31T10:56:23;14.60;99.90
43225;DHT22;28834;48.720;9.208;2022-10-31T10:58:56;14.60;99.90
43225;DHT22;28834;48.720;9.208;2022-10-31T11:01:22;14.60;99.90
43225;DHT22;28834;48.720;9.208;2022-10-31T11:03:49;14.60;99.90
43225;DHT22;28834;48.720;9.208;2022-10-31T11:06:23;14.60;99.90
43225;DHT22;28834;48.720;9.208;2022-10-31T11:08:51;14.60;99.90
43225;DHT22;28834;48.720;9.208;2022-10-31T11:13:48;14.60;99.90
43225;DHT22;28834;48.720;9.208;2022-10-31T11:18:52;14.80;99.90
43225;DHT22;28834;48.720;9.208;2022-10-31T11:21:29;15.00;99.90
43225;DHT22;28834;48.720;9.208;2022-10-31T11:24:15;15.20;99.90
43225;DHT22;28834;48.720;9.208;2022-10-31T11:26:42;15.30;99.90
43225;DHT22;28834;48.720;9.208;2022-10-31T11:29:35;15.30;99.90
43225;DHT22;28834;48.720;9.208;2022-10-31T11:32:02;15.40;99.90
43225;DHT22;28834;48.720;9.208;2022-10-31T11:34:42;15.50;99.90
43225;DHT22;28834;48.720;9.208;2022-10-31T11:37:26;15.50;99.90
43225;DHT22;28834;48.720;9.208;2022-10-31T11:39:55;15.60;99.90
43225;DHT22;28834;48.720;9.208;2022-10-31T11:42:43;15.70;99.90
43225;DHT22;28834;48.720;9.208;2022-10-31T11:47:50;15.80;99.90
43225;DHT22;28834;48.720;9.208;2022-10-31T11:50:29;15.90;99.90
43225;DHT22;28834;48.720;9.208;2022-10-31T11:53:20;16.00;99.90
43225;DHT22;28834;48.720;9.208;2022-10-31T11:55:46;16.00;99.90
43225;DHT22;28834;48.720;9.208;2022-10-31T11:58:24;16.10;99.90
43225;DHT22;28834;48.720;9.208;2022-10-31T12:00:53;16.10;99.90
43225;DHT22;28834;48.720;9.208;2022-10-31T12:06:25;16.10;99.90
43225;DHT22;28834;48.720;9.208;2022-10-31T12:08:53;16.10;99.90
43225;DHT22;28834;48.720;9.208;2022-10-31T12:19:32;16.40;99.90
43225;DHT22;28834;48.720;9.208;2022-10-31T12:24:35;16.60;99.90
43225;DHT22;28834;48.720;9.208;2022-10-31T12:27:11;16.60;99.90
43225;DHT22;28834;48.720;9.208;2022-10-31T12:32:34;16.60;99.90
43225;DHT22;28834;48.720;9.208;2022-10-31T12:38:03;16.60;99.90
43225;DHT22;28834;48.720;9.208;2022-10-31T12:40:41;16.60;99.90
43225;DHT22;28834;48.720;9.208;2022-10-31T12:45:58;16.60;99.90
43225;DHT22;28834;48.720;9.208;2022-10-31T13:05:02;16.30;99.90
43225;DHT22;28834;48.720;9.208;2022-10-31T13:07:41;16.20;99.90
43225;DHT22;28834;48.720;9.208;2022-10-31T13:10:22;16.30;99.90
43225;DHT22;28834;48.720;9.208;2022-10-31T13:12:53;16.20;99.90
43225;DHT22;28834;48.720;9.208;2022-10-31T13:15:25;16.20;99.90
43225;DHT22;28834;48.720;9.208;2022-10-31T13:17:55;16.30;99.90
43225;DHT22;28834;48.720;9.208;2022-10-31T13:20:30;16.30;99.90
43225;DHT22;28834;48.720;9.208;2022-10-31T13:23:15;16.30;99.90
43225;DHT22;28834;48.720;9.208;2022-10-31T13:25:47;16.30;99.90
43225;DHT22;28834;48.720;9.208;2022-10-31T13:31:04;16.20;99.90
43225;DHT22;28834;48.720;9.208;2022-10-31T13:33:58;16.10;99.90
43225;DHT22;28834;48.720;9.208;2022-10-31T13:36:31;16.10;99.90
43225;DHT22;28834;48.720;9.208;2022-10-31T13:44:26;16.40;99.90
43225;DHT22;28834;48.720;9.208;2022-10-31T13:46:57;16.60;99.90
43225;DHT22;28834;48.720;9.208;2022-10-31T13:49:43;16.80;99.90
43225;DHT22;28834;48.720;9.208;2022-10-31T13:57:52;16.90;99.90
43225;DHT22;28834;48.720;9.208;2022-10-31T13:59:54;16.90;99.90
43225;DHT22;28834;48.720;9.208;2022-10-31T14:02:27;16.90;99.90
43225;DHT22;28834;48.720;9.208;2022-10-31T14:05:00;16.90;99.90
43225;DHT22;28834;48.720;9.208;2022-10-31T14:07:27;16.90;99.90
43225;DHT22;28834;48.720;9.208;2022-10-31T14:09:54;17.00;99.90
43225;DHT22;28834;48.720;9.208;2022-10-31T14:12:36;17.00;99.90
43225;DHT22;28834;48.720;9.208;2022-10-31T14:22:39;17.10;99.90
43225;DHT22;28834;48.720;9.208;2022-10-31T14:25:43;17.10;99.90
43225;DHT22;28834;48.720;9.208;2022-10-31T14:28:32;17.20;99.90
43225;DHT22;28834;48.720;9.208;2022-10-31T14:30:59;17.30;99.90
43225;DHT22;28834;48.720;9.208;2022-10-31T14:33:28;17.40;99.90
43225;DHT22;28834;48.720;9.208;2022-10-31T14:36:08;17.40;99.90
43225;DHT22;28834;48.720;9.208;2022-10-31T14:47:11;16.90;99.90
43225;DHT22;28834;48.720;9.208;2022-10-31T14:52:12;16.70;99.90
43225;DHT22;28834;48.720;9.208;2022-10-31T14:54:42;16.60;99.90
43225;DHT22;28834;48.720;9.208;2022-10-31T14:57:23;16.50;99.90
43225;DHT22;28834;48.720;9.208;2022-10-31T14:59:54;16.40;99.90
43225;DHT22;28834;48.720;9.208;2022-10-31T15:02:24;16.30;99.90
43225;DHT22;28834;48.720;9.208;2022-10-31T15:04:52;16.30;99.90
43225;DHT22;28834;48.720;9.208;2022-10-31T15:07:24;16.20;99.90
43225;DHT22;28834;48.720;9.208;2022-10-31T22:11:22;11.40;99.90
43225;DHT22;28834;48.720;9.208;2022-10-31T22:13:49;11.50;99.90
43225;DHT22;28834;48.720;9.208;2022-10-31T22:16:19;11.60;99.90
43225;DHT22;28834;48.720;9.208;2022-10-31T22:18:45;11.60;99.90
43225;DHT22;28834;48.720;9.208;2022-10-31T22:21:14;11.70;99.90
43225;DHT22;28834;48.720;9.208;2022-10-31T22:23:40;11.70;99.90
43225;DHT22;28834;48.720;9.208;2022-10-31T22:26:08;11.70;99.90
43225;DHT22;28834;48.720;9.208;2022-10-31T22:28:34;11.70;99.90
43225;DHT22;28834;48.720;9.208;2022-10-31T22:31:10;11.80;99.90
43225;DHT22;28834;48.720;9.208;2022-10-31T22:33:36;11.90;99.90
43225;DHT22;28834;48.720;9.208;2022-10-31T22:36:04;11.90;99.90
43225;DHT22;28834;48.720;9.208;2022-10-31T22:38:30;11.90;99.90
43225;DHT22;28834;48.720;9.208;2022-10-31T22:40:59;11.90;99.90
43225;DHT22;28834;48.720;9.208;2022-10-31T22:43:24;11.90;99.90
43225;DHT22;28834;48.720;9.208;2022-10-31T22:45:55;11.90;99.90
43225;DHT22;28834;48.720;9.208;2022-10-31T22:48:20;12.00;99.90
43225;DHT22;28834;48.720;9.208;2022-10-31T22:50:46;12.00;99.90
43225;DHT22;28834;48.720;9.208;2022-10-31T22:53:11;12.00;99.90
43225;DHT22;28834;48.720;9.208;2022-10-31T22:55:40;12.00;99.90
43225;DHT22;28834;48.720;9.208;2022-10-31T22:58:06;12.10;99.90
43225;DHT22;28834;48.720;9.208;2022-10-31T23:00:31;12.10;99.90
43225;DHT22;28834;48.720;9.208;2022-10-31T23:02:57;12.10;99.90
43225;DHT22;28834;48.720;9.208;2022-10-31T23:05:22;12.10;99.90
43225;DHT22;28834;48.720;9.208;2022-10-31T23:07:48;12.10;99.90
43225;DHT22;28834;48.720;9.208;2022-10-31T23:10:14;12.10;99.90
43225;DHT22;28834;48.720;9.208;2022-10-31T23:12:39;12.10;99.90
43225;DHT22;28834;48.720;9.208;2022-10-31T23:15:23;12.10;99.90
